Observations for LONDON GATWICK ARPT, United Kingdom (EGKK)

EGKK 190350Z 21010KT 9999 BKN018 18/15 Q1013
EGKK 190320Z 21008KT 170V240 9999 SCT017 18/15 Q1013
EGKK 190250Z 20009KT 9999 SCT019 18/15 Q1012
EGKK 190220Z 22009KT 190V260 9999 FEW018 18/15 Q1013
EGKK 190150Z AUTO 21007KT 170V240 9999 FEW018/// 17/15 Q1013
EGKK 190120Z AUTO 21007KT 180V240 9999 FEW020/// 18/15 Q1013
EGKK 190050Z AUTO 21007KT 180V260 9999 SCT018/// 18/15 Q1013
EGKK 190020Z 21008KT 9999 FEW021 18/15 Q1013
EGKK 182350Z 21008KT 9999 FEW022 18/15 Q1013
EGKK 182320Z 20006KT CAVOK 18/14 Q1013  
EGKK 182250Z 20006KT 9999 FEW040 18/14 Q1013
EGKK 182220Z 21006KT 180V250 9999 FEW039 18/15 Q1013
EGKK 182150Z 23007KT 9999 FEW040 18/15 Q1013
EGKK 182120Z 22007KT 180V250 9999 FEW040 18/15 Q1013
EGKK 182050Z 22008KT 9999 FEW040 17/15 Q1013
EGKK 182020Z 22008KT CAVOK 17/15 Q1013  
EGKK 181950Z 21007KT 9999 BKN048 17/15 Q1013
EGKK 181920Z 22006KT 180V250 9999 FEW020 17/15 Q1013
EGKK 181850Z 21008KT 170V230 9999 SCT016 SCT036 18/15 Q1013 
EGKK 181820Z 21009KT 9999 FEW020 SCT032 18/15 Q1013 
EGKK 181750Z 21009KT 9999 FEW017 BKN022 18/15 Q1013 
EGKK 181720Z 21009KT 9999 SCT022 SCT033 19/15 Q1013 
EGKK 181650Z 22011KT 9999 SCT018 BKN030 19/15 Q1013 
EGKK 181620Z 23011KT 9999 FEW021 BKN026 19/15 Q1012 
EGKK 181550Z 23011KT 9999 BKN026 19/15 Q1012
EGKK 181520Z 23015KT 9999 FEW025 BKN035 19/14 Q1012 
EGKK 181450Z 23012KT 9999 BKN023 19/14 Q1012
EGKK 181420Z 24012KT 9999 BKN023 19/14 Q1012
EGKK 181350Z 23015KT 190V260 9999 BKN030 20/14 Q1012
EGKK 181320Z 22012KT 9999 BKN026 21/14 Q1011
EGKK 181250Z 23013KT 9999 SCT026 20/14 Q1011
EGKK 181220Z 23013KT 190V260 9999 BKN025 20/14 Q1011
EGKK 181150Z 24012KT 190V260 9999 BKN027 20/13 Q1010
EGKK 181120Z 23014G25KT 9999 FEW024 SCT028 19/14 Q1010  
EGKK 181050Z 23017KT 9999 SCT027 19/13 Q1010
EGKK 181020Z 23016KT 9999 SCT027 19/13 Q1010
EGKK 180950Z 23017KT 190V250 9999 FEW016 SCT021 19/13 Q1009 
EGKK 180920Z 22010KT 180V240 9999 -RA FEW014 BKN020 18/15 Q1009 
EGKK 180850Z 22014KT 8000 -RA SCT011 OVC016 17/15 Q1009 
EGKK 180820Z 22012KT 7000 -RA SCT013 BKN015 17/15 Q1008 
EGKK 180750Z 23011KT 190V260 7000 -RA SCT013 BKN015 17/15 Q1008 
EGKK 180720Z 22009KT 190V270 9999 FEW011 BKN015 17/15 Q1007 
EGKK 180650Z 22015KT 200V260 8000 -RA SCT009 BKN016 17/16 Q1007 REDZ
EGKK 180620Z 21016G26KT 180V240 4000 DZ BKN011 17/15 Q1007  
EGKK 180550Z 22013G24KT 9999 BKN018 18/14 Q1007 
EGKK 180520Z 22014G24KT 9999 BKN018 BKN031 18/15 Q1006  
EGKK 180450Z 23014KT 9999 -RA FEW010 BKN013 18/16 Q1006 
EGKK 180420Z 20013KT 9999 BKN014 19/16 Q1006
EGKK 180350Z 20012KT 9999 BKN014 19/16 Q1006
EGKK 180320Z 20010KT 170V230 9999 SCT015 BKN033 18/16 Q1006